sensor_id;sensor_type;location;lat;lon;timestamp;temperature;humidity
29917;DHT22;16786;49.466;11.068;2023-05-29T00:01:05;15.40;99.90
29917;DHT22;16786;49.466;11.068;2023-05-29T00:03:36;15.40;99.90
29917;DHT22;16786;49.466;11.068;2023-05-29T00:06:04;15.30;99.90
29917;DHT22;16786;49.466;11.068;2023-05-29T00:08:33;15.30;99.90
29917;DHT22;16786;49.466;11.068;2023-05-29T00:11:00;15.30;99.90
29917;DHT22;16786;49.466;11.068;2023-05-29T00:13:27;15.20;99.90
29917;DHT22;16786;49.466;11.068;2023-05-29T00:15:55;15.20;99.90
29917;DHT22;16786;49.466;11.068;2023-05-29T00:18:23;15.10;99.90
29917;DHT22;16786;49.466;11.068;2023-05-29T00:20:51;15.10;99.90
29917;DHT22;16786;49.466;11.068;2023-05-29T00:23:21;15.10;99.90
29917;DHT22;16786;49.466;11.068;2023-05-29T00:25:48;15.10;99.90
29917;DHT22;16786;49.466;11.068;2023-05-29T00:28:16;15.10;99.90
29917;DHT22;16786;49.466;11.068;2023-05-29T00:30:43;15.00;99.90
29917;DHT22;16786;49.466;11.068;2023-05-29T00:33:10;15.00;99.90
29917;DHT22;16786;49.466;11.068;2023-05-29T00:35:38;15.00;99.90
29917;DHT22;16786;49.466;11.068;2023-05-29T00:38:05;14.90;99.90
29917;DHT22;16786;49.466;11.068;2023-05-29T00:40:32;14.90;99.90
29917;DHT22;16786;49.466;11.068;2023-05-29T00:43:01;14.90;99.90
29917;DHT22;16786;49.466;11.068;2023-05-29T00:45:30;14.80;99.90
29917;DHT22;16786;49.466;11.068;2023-05-29T00:47:58;14.80;99.90
29917;DHT22;16786;49.466;11.068;2023-05-29T00:50:26;14.80;99.90
29917;DHT22;16786;49.466;11.068;2023-05-29T00:52:54;14.70;99.90
29917;DHT22;16786;49.466;11.068;2023-05-29T00:55:22;14.80;99.90
29917;DHT22;16786;49.466;11.068;2023-05-29T00:57:49;14.70;99.90
29917;DHT22;16786;49.466;11.068;2023-05-29T01:00:17;14.70;99.90
29917;DHT22;16786;49.466;11.068;2023-05-29T01:02:45;14.70;99.90
29917;DHT22;16786;49.466;11.068;2023-05-29T01:05:14;14.70;99.90
29917;DHT22;16786;49.466;11.068;2023-05-29T01:07:46;14.70;99.90
29917;DHT22;16786;49.466;11.068;2023-05-29T01:10:14;14.60;99.90
29917;DHT22;16786;49.466;11.068;2023-05-29T01:12:57;14.60;99.90
29917;DHT22;16786;49.466;11.068;2023-05-29T01:21:42;14.60;99.90
29917;DHT22;16786;49.466;11.068;2023-05-29T01:27:05;14.50;99.90
29917;DHT22;16786;49.466;11.068;2023-05-29T01:29:34;14.50;99.90
29917;DHT22;16786;49.466;11.068;2023-05-29T01:32:02;14.50;99.90
29917;DHT22;16786;49.466;11.068;2023-05-29T01:34:30;14.50;99.90
29917;DHT22;16786;49.466;11.068;2023-05-29T01:36:57;14.40;99.90
29917;DHT22;16786;49.466;11.068;2023-05-29T01:39:25;14.40;99.90
29917;DHT22;16786;49.466;11.068;2023-05-29T01:41:53;14.40;99.90
29917;DHT22;16786;49.466;11.068;2023-05-29T01:44:23;14.30;99.90
29917;DHT22;16786;49.466;11.068;2023-05-29T01:46:51;14.30;99.90
29917;DHT22;16786;49.466;11.068;2023-05-29T01:49:19;14.30;99.90
29917;DHT22;16786;49.466;11.068;2023-05-29T01:51:46;14.30;99.90
29917;DHT22;16786;49.466;11.068;2023-05-29T01:54:14;14.20;99.90
29917;DHT22;16786;49.466;11.068;2023-05-29T01:56:42;14.10;99.90
29917;DHT22;16786;49.466;11.068;2023-05-29T01:59:17;14.10;99.90
29917;DHT22;16786;49.466;11.068;2023-05-29T02:01:44;14.10;99.90
29917;DHT22;16786;49.466;11.068;2023-05-29T02:04:12;14.00;99.90
29917;DHT22;16786;49.466;11.068;2023-05-29T02:06:39;14.00;99.90
29917;DHT22;16786;49.466;11.068;2023-05-29T02:09:07;13.90;99.90
29917;DHT22;16786;49.466;11.068;2023-05-29T02:11:34;13.90;99.90
29917;DHT22;16786;49.466;11.068;2023-05-29T02:14:02;13.80;99.90
29917;DHT22;16786;49.466;11.068;2023-05-29T02:16:31;13.80;99.90
29917;DHT22;16786;49.466;11.068;2023-05-29T02:19:01;13.70;99.90
29917;DHT22;16786;49.466;11.068;2023-05-29T02:21:30;13.70;99.90
29917;DHT22;16786;49.466;11.068;2023-05-29T02:23:58;13.70;99.90
29917;DHT22;16786;49.466;11.068;2023-05-29T02:26:26;13.70;99.90
29917;DHT22;16786;49.466;11.068;2023-05-29T02:28:53;13.70;99.90
29917;DHT22;16786;49.466;11.068;2023-05-29T02:31:21;13.60;99.90
29917;DHT22;16786;49.466;11.068;2023-05-29T02:33:48;13.60;99.90
29917;DHT22;16786;49.466;11.068;2023-05-29T02:36:15;13.60;99.90
29917;DHT22;16786;49.466;11.068;2023-05-29T02:38:43;13.60;99.90
29917;DHT22;16786;49.466;11.068;2023-05-29T02:41:11;13.50;99.90
29917;DHT22;16786;49.466;11.068;2023-05-29T02:43:38;13.50;99.90
29917;DHT22;16786;49.466;11.068;2023-05-29T02:46:06;13.40;99.90
29917;DHT22;16786;49.466;11.068;2023-05-29T02:48:33;13.40;99.90
29917;DHT22;16786;49.466;11.068;2023-05-29T02:51:00;13.30;99.90
29917;DHT22;16786;49.466;11.068;2023-05-29T02:53:28;13.30;99.90
29917;DHT22;16786;49.466;11.068;2023-05-29T02:55:55;13.20;99.90
29917;DHT22;16786;49.466;11.068;2023-05-29T02:58:22;13.20;99.90
29917;DHT22;16786;49.466;11.068;2023-05-29T03:00:50;13.20;99.90
29917;DHT22;16786;49.466;11.068;2023-05-29T03:03:18;13.20;99.90
29917;DHT22;16786;49.466;11.068;2023-05-29T03:05:46;13.10;99.90
29917;DHT22;16786;49.466;11.068;2023-05-29T03:08:14;13.10;99.90
29917;DHT22;16786;49.466;11.068;2023-05-29T03:10:43;13.10;99.90
29917;DHT22;16786;49.466;11.068;2023-05-29T03:13:11;13.10;99.90
29917;DHT22;16786;49.466;11.068;2023-05-29T03:15:46;13.00;99.90
29917;DHT22;16786;49.466;11.068;2023-05-29T03:18:15;13.00;99.90
29917;DHT22;16786;49.466;11.068;2023-05-29T03:20:43;12.90;99.90
29917;DHT22;16786;49.466;11.068;2023-05-29T03:23:11;12.90;99.90
29917;DHT22;16786;49.466;11.068;2023-05-29T03:25:38;12.90;99.90
29917;DHT22;16786;49.466;11.068;2023-05-29T03:28:06;12.90;99.90
29917;DHT22;16786;49.466;11.068;2023-05-29T03:30:34;12.90;99.90
29917;DHT22;16786;49.466;11.068;2023-05-29T03:33:01;12.90;99.90
29917;DHT22;16786;49.466;11.068;2023-05-29T03:36:09;12.90;99.90
29917;DHT22;16786;49.466;11.068;2023-05-29T03:38:36;12.90;99.90
29917;DHT22;16786;49.466;11.068;2023-05-29T03:41:03;12.90;99.90
29917;DHT22;16786;49.466;11.068;2023-05-29T03:43:32;12.90;99.90
29917;DHT22;16786;49.466;11.068;2023-05-29T03:45:59;12.90;99.90
29917;DHT22;16786;49.466;11.068;2023-05-29T03:48:29;12.90;99.90
29917;DHT22;16786;49.466;11.068;2023-05-29T03:50:57;12.90;99.90
29917;DHT22;16786;49.466;11.068;2023-05-29T03:53:30;12.90;99.90
29917;DHT22;16786;49.466;11.068;2023-05-29T03:55:58;12.90;99.90
29917;DHT22;16786;49.466;11.068;2023-05-29T03:58:25;12.90;99.90
29917;DHT22;16786;49.466;11.068;2023-05-29T04:00:53;12.90;99.90
29917;DHT22;16786;49.466;11.068;2023-05-29T04:03:21;12.90;99.90
29917;DHT22;16786;49.466;11.068;2023-05-29T04:05:49;13.00;99.90
29917;DHT22;16786;49.466;11.068;2023-05-29T04:08:16;13.00;99.90
29917;DHT22;16786;49.466;11.068;2023-05-29T04:10:44;13.00;99.90
29917;DHT22;16786;49.466;11.068;2023-05-29T04:13:11;13.10;99.90
29917;DHT22;16786;49.466;11.068;2023-05-29T04:15:39;13.10;99.90
29917;DHT22;16786;49.466;11.068;2023-05-29T04:18:06;13.20;99.90
29917;DHT22;16786;49.466;11.068;2023-05-29T04:20:34;13.30;99.90
29917;DHT22;16786;49.466;11.068;2023-05-29T04:23:02;13.30;99.90
29917;DHT22;16786;49.466;11.068;2023-05-29T04:25:30;13.30;99.90
29917;DHT22;16786;49.466;11.068;2023-05-29T04:27:57;13.40;99.90
29917;DHT22;16786;49.466;11.068;2023-05-29T04:30:25;13.40;99.90
29917;DHT22;16786;49.466;11.068;2023-05-29T04:32:52;13.50;99.90
29917;DHT22;16786;49.466;11.068;2023-05-29T04:35:22;13.60;99.90
29917;DHT22;16786;49.466;11.068;2023-05-29T04:37:55;13.70;99.90
29917;DHT22;16786;49.466;11.068;2023-05-29T04:40:25;13.70;99.90
29917;DHT22;16786;49.466;11.068;2023-05-29T04:42:53;13.80;99.90
29917;DHT22;16786;49.466;11.068;2023-05-29T04:45:22;13.90;99.90
29917;DHT22;16786;49.466;11.068;2023-05-29T04:47:50;13.90;99.90
29917;DHT22;16786;49.466;11.068;2023-05-29T04:50:21;14.00;99.90
29917;DHT22;16786;49.466;11.068;2023-05-29T04:52:51;14.00;99.90
29917;DHT22;16786;49.466;11.068;2023-05-29T04:55:18;14.10;99.90
29917;DHT22;16786;49.466;11.068;2023-05-29T04:57:46;14.20;99.90
29917;DHT22;16786;49.466;11.068;2023-05-29T05:00:13;14.30;99.90
29917;DHT22;16786;49.466;11.068;2023-05-29T05:02:44;14.30;99.90
29917;DHT22;16786;49.466;11.068;2023-05-29T05:05:13;14.40;99.90
29917;DHT22;16786;49.466;11.068;2023-05-29T05:07:40;14.50;99.90
29917;DHT22;16786;49.466;11.068;2023-05-29T05:10:08;14.60;99.90
29917;DHT22;16786;49.466;11.068;2023-05-29T05:12:35;14.70;99.90
29917;DHT22;16786;49.466;11.068;2023-05-29T05:15:04;14.70;99.90
29917;DHT22;16786;49.466;11.068;2023-05-29T05:17:33;14.70;99.90
29917;DHT22;16786;49.466;11.068;2023-05-29T05:20:01;14.80;99.90
29917;DHT22;16786;49.466;11.068;2023-05-29T05:22:29;14.80;99.90
29917;DHT22;16786;49.466;11.068;2023-05-29T05:24:56;14.90;99.90
29917;DHT22;16786;49.466;11.068;2023-05-29T05:27:25;15.00;99.90
29917;DHT22;16786;49.466;11.068;2023-05-29T05:29:53;15.10;99.90
29917;DHT22;16786;49.466;11.068;2023-05-29T05:32:20;15.10;99.90
29917;DHT22;16786;49.466;11.068;2023-05-29T05:34:55;15.20;99.90
29917;DHT22;16786;49.466;11.068;2023-05-29T05:37:23;15.20;99.90
29917;DHT22;16786;49.466;11.068;2023-05-29T05:39:51;15.30;99.90
29917;DHT22;16786;49.466;11.068;2023-05-29T05:42:20;15.30;99.90
29917;DHT22;16786;49.466;11.068;2023-05-29T05:44:52;15.50;99.90
29917;DHT22;16786;49.466;11.068;2023-05-29T05:47:20;15.50;99.90
29917;DHT22;16786;49.466;11.068;2023-05-29T05:49:47;15.60;99.90
29917;DHT22;16786;49.466;11.068;2023-05-29T05:52:17;15.70;99.90
29917;DHT22;16786;49.466;11.068;2023-05-29T05:54:45;15.70;99.90
29917;DHT22;16786;49.466;11.068;2023-05-29T05:57:13;15.80;99.90
29917;DHT22;16786;49.466;11.068;2023-05-29T05:59:40;15.90;99.90
29917;DHT22;16786;49.466;11.068;2023-05-29T06:02:08;16.00;99.90
29917;DHT22;16786;49.466;11.068;2023-05-29T06:04:36;16.10;99.90
29917;DHT22;16786;49.466;11.068;2023-05-29T06:07:04;16.20;99.90
29917;DHT22;16786;49.466;11.068;2023-05-29T06:09:31;16.30;99.90
29917;DHT22;16786;49.466;11.068;2023-05-29T06:11:59;16.40;99.90
29917;DHT22;16786;49.466;11.068;2023-05-29T06:14:28;16.50;99.90
29917;DHT22;16786;49.466;11.068;2023-05-29T06:16:56;16.50;99.90
29917;DHT22;16786;49.466;11.068;2023-05-29T06:19:25;16.60;99.90
29917;DHT22;16786;49.466;11.068;2023-05-29T06:21:59;16.70;99.90
29917;DHT22;16786;49.466;11.068;2023-05-29T06:24:29;16.80;99.90
29917;DHT22;16786;49.466;11.068;2023-05-29T06:26:56;16.90;99.90
29917;DHT22;16786;49.466;11.068;2023-05-29T06:29:24;17.10;99.90
29917;DHT22;16786;49.466;11.068;2023-05-29T06:31:51;17.20;99.90
29917;DHT22;16786;49.466;11.068;2023-05-29T06:34:19;17.30;99.90
29917;DHT22;16786;49.466;11.068;2023-05-29T06:36:47;17.40;99.90
29917;DHT22;16786;49.466;11.068;2023-05-29T06:39:14;17.50;99.90
29917;DHT22;16786;49.466;11.068;2023-05-29T06:41:43;17.60;99.90
29917;DHT22;16786;49.466;11.068;2023-05-29T06:44:16;17.70;99.90
29917;DHT22;16786;49.466;11.068;2023-05-29T06:46:44;17.80;99.90
29917;DHT22;16786;49.466;11.068;2023-05-29T06:49:11;17.90;99.90
29917;DHT22;16786;49.466;11.068;2023-05-29T06:51:39;18.00;99.90
29917;DHT22;16786;49.466;11.068;2023-05-29T06:54:22;18.10;99.90
29917;DHT22;16786;49.466;11.068;2023-05-29T06:56:50;18.30;99.90
29917;DHT22;16786;49.466;11.068;2023-05-29T06:59:36;18.40;99.90
29917;DHT22;16786;49.466;11.068;2023-05-29T07:02:04;18.50;99.90
29917;DHT22;16786;49.466;11.068;2023-05-29T07:04:32;18.60;99.90
29917;DHT22;16786;49.466;11.068;2023-05-29T07:07:00;18.70;99.90
29917;DHT22;16786;49.466;11.068;2023-05-29T07:09:27;18.80;99.90
29917;DHT22;16786;49.466;11.068;2023-05-29T07:11:55;18.90;99.90
29917;DHT22;16786;49.466;11.068;2023-05-29T07:14:23;19.00;99.90
29917;DHT22;16786;49.466;11.068;2023-05-29T07:16:51;19.10;99.90
29917;DHT22;16786;49.466;11.068;2023-05-29T07:19:19;19.20;99.90
29917;DHT22;16786;49.466;11.068;2023-05-29T07:21:49;19.30;99.90
29917;DHT22;16786;49.466;11.068;2023-05-29T07:24:19;19.50;99.90
29917;DHT22;16786;49.466;11.068;2023-05-29T07:26:47;19.50;99.90
29917;DHT22;16786;49.466;11.068;2023-05-29T07:29:14;19.60;99.90
29917;DHT22;16786;49.466;11.068;2023-05-29T07:31:44;19.60;99.90
29917;DHT22;16786;49.466;11.068;2023-05-29T07:34:12;19.70;99.90
29917;DHT22;16786;49.466;11.068;2023-05-29T07:37:05;19.90;99.90
29917;DHT22;16786;49.466;11.068;2023-05-29T07:39:35;20.00;99.90
29917;DHT22;16786;49.466;11.068;2023-05-29T07:42:12;20.10;99.90
29917;DHT22;16786;49.466;11.068;2023-05-29T07:44:42;20.20;99.90
29917;DHT22;16786;49.466;11.068;2023-05-29T07:47:10;20.30;99.90
29917;DHT22;16786;49.466;11.068;2023-05-29T07:49:44;20.30;99.90
29917;DHT22;16786;49.466;11.068;2023-05-29T07:52:12;20.40;99.90
29917;DHT22;16786;49.466;11.068;2023-05-29T07:54:41;20.50;99.90
29917;DHT22;16786;49.466;11.068;2023-05-29T07:57:09;20.50;99.90
29917;DHT22;16786;49.466;11.068;2023-05-29T07:59:42;20.70;99.90
29917;DHT22;16786;49.466;11.068;2023-05-29T08:02:10;20.80;99.90
29917;DHT22;16786;49.466;11.068;2023-05-29T08:05:08;20.90;99.90
29917;DHT22;16786;49.466;11.068;2023-05-29T08:07:37;21.00;99.90
29917;DHT22;16786;49.466;11.068;2023-05-29T08:10:04;21.00;99.90
29917;DHT22;16786;49.466;11.068;2023-05-29T08:12:32;21.10;99.90
29917;DHT22;16786;49.466;11.068;2023-05-29T08:15:03;21.10;98.80
29917;DHT22;16786;49.466;11.068;2023-05-29T08:17:30;21.10;98.60
29917;DHT22;16786;49.466;11.068;2023-05-29T08:19:58;21.20;99.00
29917;DHT22;16786;49.466;11.068;2023-05-29T08:22:29;21.20;98.60
29917;DHT22;16786;49.466;11.068;2023-05-29T08:24:57;21.40;97.80
29917;DHT22;16786;49.466;11.068;2023-05-29T08:27:24;21.50;95.90
29917;DHT22;16786;49.466;11.068;2023-05-29T08:29:51;21.60;95.40
29917;DHT22;16786;49.466;11.068;2023-05-29T08:32:19;21.70;95.00
29917;DHT22;16786;49.466;11.068;2023-05-29T08:34:46;21.80;95.00
29917;DHT22;16786;49.466;11.068;2023-05-29T08:37:13;21.90;93.80
29917;DHT22;16786;49.466;11.068;2023-05-29T08:39:41;21.90;93.20
29917;DHT22;16786;49.466;11.068;2023-05-29T08:42:13;22.00;92.90
29917;DHT22;16786;49.466;11.068;2023-05-29T08:44:43;22.00;93.10
29917;DHT22;16786;49.466;11.068;2023-05-29T08:47:14;22.00;92.30
29917;DHT22;16786;49.466;11.068;2023-05-29T08:49:52;22.00;92.50
29917;DHT22;16786;49.466;11.068;2023-05-29T08:52:22;22.10;92.30
29917;DHT22;16786;49.466;11.068;2023-05-29T08:54:52;22.20;92.00
29917;DHT22;16786;49.466;11.068;2023-05-29T08:57:20;22.30;91.40
29917;DHT22;16786;49.466;11.068;2023-05-29T08:59:51;22.40;91.20
29917;DHT22;16786;49.466;11.068;2023-05-29T09:02:19;22.50;90.20
29917;DHT22;16786;49.466;11.068;2023-05-29T09:04:47;22.50;88.30
29917;DHT22;16786;49.466;11.068;2023-05-29T09:07:16;22.60;88.10
29917;DHT22;16786;49.466;11.068;2023-05-29T09:09:46;22.70;87.60
29917;DHT22;16786;49.466;11.068;2023-05-29T09:12:14;22.70;87.60
29917;DHT22;16786;49.466;11.068;2023-05-29T09:14:42;22.70;86.80
29917;DHT22;16786;49.466;11.068;2023-05-29T09:17:12;22.70;86.90
29917;DHT22;16786;49.466;11.068;2023-05-29T09:19:40;22.80;87.10
29917;DHT22;16786;49.466;11.068;2023-05-29T09:22:10;23.00;87.20
29917;DHT22;16786;49.466;11.068;2023-05-29T09:24:38;23.10;84.10
29917;DHT22;16786;49.466;11.068;2023-05-29T09:27:11;23.20;81.20
29917;DHT22;16786;49.466;11.068;2023-05-29T09:29:42;23.10;81.10
29917;DHT22;16786;49.466;11.068;2023-05-29T09:32:12;23.20;81.30
29917;DHT22;16786;49.466;11.068;2023-05-29T09:34:39;23.40;80.40
29917;DHT22;16786;49.466;11.068;2023-05-29T09:37:08;23.60;80.70
29917;DHT22;16786;49.466;11.068;2023-05-29T09:42:10;23.70;77.90
29917;DHT22;16786;49.466;11.068;2023-05-29T09:44:37;23.80;77.70
29917;DHT22;16786;49.466;11.068;2023-05-29T09:47:06;23.90;77.70
29917;DHT22;16786;49.466;11.068;2023-05-29T09:49:34;23.90;77.10
29917;DHT22;16786;49.466;11.068;2023-05-29T09:52:05;24.10;75.80
29917;DHT22;16786;49.466;11.068;2023-05-29T09:54:35;24.20;76.00
29917;DHT22;16786;49.466;11.068;2023-05-29T09:57:03;24.30;75.20
29917;DHT22;16786;49.466;11.068;2023-05-29T09:59:33;24.40;73.30
29917;DHT22;16786;49.466;11.068;2023-05-29T10:02:04;24.50;73.30
29917;DHT22;16786;49.466;11.068;2023-05-29T10:04:32;24.50;71.90
29917;DHT22;16786;49.466;11.068;2023-05-29T10:09:45;24.70;70.50
29917;DHT22;16786;49.466;11.068;2023-05-29T10:12:17;24.80;70.10
29917;DHT22;16786;49.466;11.068;2023-05-29T10:14:49;24.90;69.30
29917;DHT22;16786;49.466;11.068;2023-05-29T10:17:18;24.90;68.40
29917;DHT22;16786;49.466;11.068;2023-05-29T10:19:50;24.90;68.70
29917;DHT22;16786;49.466;11.068;2023-05-29T10:22:21;25.20;68.40
29917;DHT22;16786;49.466;11.068;2023-05-29T10:24:52;25.40;67.90
29917;DHT22;16786;49.466;11.068;2023-05-29T10:27:25;25.60;67.00
29917;DHT22;16786;49.466;11.068;2023-05-29T10:30:02;25.80;66.60
29917;DHT22;16786;49.466;11.068;2023-05-29T10:38:14;26.30;64.60
29917;DHT22;16786;49.466;11.068;2023-05-29T10:40:44;26.50;64.20
29917;DHT22;16786;49.466;11.068;2023-05-29T10:43:30;26.60;62.90
29917;DHT22;16786;49.466;11.068;2023-05-29T10:46:00;26.30;62.60
29917;DHT22;16786;49.466;11.068;2023-05-29T10:48:39;26.40;62.70
29917;DHT22;16786;49.466;11.068;2023-05-29T10:51:08;26.60;62.00
29917;DHT22;16786;49.466;11.068;2023-05-29T10:53:36;26.80;61.90
29917;DHT22;16786;49.466;11.068;2023-05-29T10:56:09;27.10;61.40
29917;DHT22;16786;49.466;11.068;2023-05-29T10:58:41;27.30;60.10
29917;DHT22;16786;49.466;11.068;2023-05-29T11:01:09;27.50;58.80
29917;DHT22;16786;49.466;11.068;2023-05-29T11:03:37;27.80;58.30
29917;DHT22;16786;49.466;11.068;2023-05-29T11:06:05;28.00;58.40
29917;DHT22;16786;49.466;11.068;2023-05-29T11:08:41;28.10;58.00
29917;DHT22;16786;49.466;11.068;2023-05-29T11:11:12;28.10;57.40
29917;DHT22;16786;49.466;11.068;2023-05-29T11:13:39;28.30;56.90
29917;DHT22;16786;49.466;11.068;2023-05-29T11:18:53;28.40;56.60
29917;DHT22;16786;49.466;11.068;2023-05-29T11:21:31;28.70;56.40
29917;DHT22;16786;49.466;11.068;2023-05-29T11:24:02;28.90;56.60
29917;DHT22;16786;49.466;11.068;2023-05-29T11:26:35;28.90;57.00
29917;DHT22;16786;49.466;11.068;2023-05-29T11:29:04;29.10;56.30
29917;DHT22;16786;49.466;11.068;2023-05-29T11:31:33;29.50;55.20
29917;DHT22;16786;49.466;11.068;2023-05-29T11:34:04;29.60;55.10
29917;DHT22;16786;49.466;11.068;2023-05-29T11:36:33;29.80;55.00
29917;DHT22;16786;49.466;11.068;2023-05-29T11:39:01;30.20;54.70
29917;DHT22;16786;49.466;11.068;2023-05-29T11:41:29;30.00;53.40
29917;DHT22;16786;49.466;11.068;2023-05-29T11:44:00;30.30;53.20
29917;DHT22;16786;49.466;11.068;2023-05-29T11:46:32;30.30;53.80
29917;DHT22;16786;49.466;11.068;2023-05-29T11:49:01;30.50;53.10
29917;DHT22;16786;49.466;11.068;2023-05-29T11:51:29;30.60;53.00
29917;DHT22;16786;49.466;11.068;2023-05-29T11:53:56;30.70;52.70
29917;DHT22;16786;49.466;11.068;2023-05-29T11:56:28;30.80;52.30
29917;DHT22;16786;49.466;11.068;2023-05-29T11:58:58;30.80;52.30
29917;DHT22;16786;49.466;11.068;2023-05-29T12:01:27;31.10;51.40
29917;DHT22;16786;49.466;11.068;2023-05-29T12:03:55;31.40;50.90
29917;DHT22;16786;49.466;11.068;2023-05-29T12:06:33;31.80;50.40
29917;DHT22;16786;49.466;11.068;2023-05-29T12:09:05;31.80;50.10
29917;DHT22;16786;49.466;11.068;2023-05-29T12:11:34;32.00;49.70
29917;DHT22;16786;49.466;11.068;2023-05-29T12:14:02;32.20;49.20
29917;DHT22;16786;49.466;11.068;2023-05-29T12:16:31;32.50;48.20
29917;DHT22;16786;49.466;11.068;2023-05-29T12:18:59;32.70;48.00
29917;DHT22;16786;49.466;11.068;2023-05-29T12:21:27;32.80;46.40
29917;DHT22;16786;49.466;11.068;2023-05-29T12:23:55;32.90;46.90
29917;DHT22;16786;49.466;11.068;2023-05-29T12:26:41;33.20;46.90
29917;DHT22;16786;49.466;11.068;2023-05-29T12:29:09;33.70;46.10
29917;DHT22;16786;49.466;11.068;2023-05-29T12:31:36;33.80;46.20
29917;DHT22;16786;49.466;11.068;2023-05-29T12:34:08;34.10;45.40
29917;DHT22;16786;49.466;11.068;2023-05-29T12:36:40;34.30;45.20
29917;DHT22;16786;49.466;11.068;2023-05-29T12:39:08;34.30;45.50
29917;DHT22;16786;49.466;11.068;2023-05-29T12:41:37;34.60;44.60
29917;DHT22;16786;49.466;11.068;2023-05-29T12:44:06;35.20;44.30
29917;DHT22;16786;49.466;11.068;2023-05-29T12:46:43;35.60;43.80
29917;DHT22;16786;49.466;11.068;2023-05-29T12:49:15;35.50;43.20
29917;DHT22;16786;49.466;11.068;2023-05-29T12:51:44;35.30;43.60
29917;DHT22;16786;49.466;11.068;2023-05-29T12:54:16;35.40;43.20
29917;DHT22;16786;49.466;11.068;2023-05-29T12:56:43;35.30;43.40
29917;DHT22;16786;49.466;11.068;2023-05-29T12:59:13;35.70;42.90
29917;DHT22;16786;49.466;11.068;2023-05-29T13:01:40;35.60;42.60
29917;DHT22;16786;49.466;11.068;2023-05-29T13:04:07;35.60;42.50
29917;DHT22;16786;49.466;11.068;2023-05-29T13:06:38;35.20;43.10
29917;DHT22;16786;49.466;11.068;2023-05-29T13:09:06;35.30;43.50
29917;DHT22;16786;49.466;11.068;2023-05-29T13:11:35;35.60;42.30
29917;DHT22;16786;49.466;11.068;2023-05-29T13:14:04;35.40;42.70
29917;DHT22;16786;49.466;11.068;2023-05-29T13:16:32;35.60;41.80
29917;DHT22;16786;49.466;11.068;2023-05-29T13:19:00;35.70;42.10
29917;DHT22;16786;49.466;11.068;2023-05-29T13:21:27;36.50;41.60
29917;DHT22;16786;49.466;11.068;2023-05-29T13:23:54;36.90;41.70
29917;DHT22;16786;49.466;11.068;2023-05-29T13:26:22;37.20;40.00
29917;DHT22;16786;49.466;11.068;2023-05-29T13:28:50;36.80;40.40
29917;DHT22;16786;49.466;11.068;2023-05-29T13:31:18;36.50;40.40
29917;DHT22;16786;49.466;11.068;2023-05-29T13:33:48;36.60;40.00
29917;DHT22;16786;49.466;11.068;2023-05-29T13:36:15;37.30;40.10
29917;DHT22;16786;49.466;11.068;2023-05-29T13:38:42;37.70;40.10
29917;DHT22;16786;49.466;11.068;2023-05-29T13:41:11;37.50;39.90
29917;DHT22;16786;49.466;11.068;2023-05-29T13:43:38;38.10;39.50
29917;DHT22;16786;49.466;11.068;2023-05-29T13:46:12;38.70;39.30
29917;DHT22;16786;49.466;11.068;2023-05-29T13:48:39;38.60;38.90
29917;DHT22;16786;49.466;11.068;2023-05-29T13:51:07;39.10;38.80
29917;DHT22;16786;49.466;11.068;2023-05-29T13:53:34;40.10;37.80
29917;DHT22;16786;49.466;11.068;2023-05-29T13:56:01;40.90;36.80
29917;DHT22;16786;49.466;11.068;2023-05-29T13:58:29;41.30;37.70
29917;DHT22;16786;49.466;11.068;2023-05-29T14:00:56;41.40;35.80
29917;DHT22;16786;49.466;11.068;2023-05-29T14:03:24;41.60;35.50
29917;DHT22;16786;49.466;11.068;2023-05-29T14:05:56;42.30;34.90
29917;DHT22;16786;49.466;11.068;2023-05-29T14:08:24;42.70;34.70
29917;DHT22;16786;49.466;11.068;2023-05-29T14:10:52;43.20;34.70
29917;DHT22;16786;49.466;11.068;2023-05-29T14:13:19;44.20;33.90
29917;DHT22;16786;49.466;11.068;2023-05-29T14:15:46;44.60;33.70
29917;DHT22;16786;49.466;11.068;2023-05-29T14:18:16;45.20;33.10
29917;DHT22;16786;49.466;11.068;2023-05-29T14:20:43;45.80;32.20
29917;DHT22;16786;49.466;11.068;2023-05-29T14:23:17;46.40;32.10
29917;DHT22;16786;49.466;11.068;2023-05-29T14:25:45;46.70;31.10
29917;DHT22;16786;49.466;11.068;2023-05-29T14:28:12;46.00;31.20
29917;DHT22;16786;49.466;11.068;2023-05-29T14:30:39;46.00;31.20
29917;DHT22;16786;49.466;11.068;2023-05-29T14:33:07;46.30;30.50
29917;DHT22;16786;49.466;11.068;2023-05-29T14:35:34;46.60;30.40
29917;DHT22;16786;49.466;11.068;2023-05-29T14:38:02;46.50;30.00
29917;DHT22;16786;49.466;11.068;2023-05-29T14:40:29;46.00;29.70
29917;DHT22;16786;49.466;11.068;2023-05-29T14:42:58;45.40;29.90
29917;DHT22;16786;49.466;11.068;2023-05-29T14:45:25;45.70;30.00
29917;DHT22;16786;49.466;11.068;2023-05-29T14:47:53;45.50;30.00
29917;DHT22;16786;49.466;11.068;2023-05-29T14:50:20;46.20;29.90
29917;DHT22;16786;49.466;11.068;2023-05-29T14:52:47;46.60;29.60
29917;DHT22;16786;49.466;11.068;2023-05-29T14:55:15;46.60;29.90
29917;DHT22;16786;49.466;11.068;2023-05-29T14:57:42;46.70;29.70
29917;DHT22;16786;49.466;11.068;2023-05-29T15:00:10;47.30;29.70
29917;DHT22;16786;49.466;11.068;2023-05-29T15:02:37;47.40;29.30
29917;DHT22;16786;49.466;11.068;2023-05-29T15:05:07;46.90;29.40
29917;DHT22;16786;49.466;11.068;2023-05-29T15:07:34;46.60;29.40
29917;DHT22;16786;49.466;11.068;2023-05-29T15:10:05;46.40;29.20
29917;DHT22;16786;49.466;11.068;2023-05-29T15:12:33;46.60;29.20
29917;DHT22;16786;49.466;11.068;2023-05-29T15:15:02;47.40;29.20
29917;DHT22;16786;49.466;11.068;2023-05-29T15:17:31;47.50;29.60
29917;DHT22;16786;49.466;11.068;2023-05-29T15:19:58;48.30;29.10
29917;DHT22;16786;49.466;11.068;2023-05-29T15:22:28;48.40;29.10
29917;DHT22;16786;49.466;11.068;2023-05-29T15:24:55;48.20;29.30
29917;DHT22;16786;49.466;11.068;2023-05-29T15:27:22;47.10;29.70
29917;DHT22;16786;49.466;11.068;2023-05-29T15:30:10;47.10;30.00
29917;DHT22;16786;49.466;11.068;2023-05-29T15:32:38;47.30;30.20
29917;DHT22;16786;49.466;11.068;2023-05-29T15:35:08;47.30;30.10
29917;DHT22;16786;49.466;11.068;2023-05-29T15:37:35;47.20;30.30
29917;DHT22;16786;49.466;11.068;2023-05-29T15:40:03;46.60;30.60
29917;DHT22;16786;49.466;11.068;2023-05-29T15:42:32;46.70;30.60
29917;DHT22;16786;49.466;11.068;2023-05-29T15:45:00;47.00;30.30
29917;DHT22;16786;49.466;11.068;2023-05-29T15:47:30;47.40;29.90
29917;DHT22;16786;49.466;11.068;2023-05-29T15:49:58;47.80;29.80